sensor_id;sensor_type;location;lat;lon;timestamp;P1;durP1;ratioP1;P2;durP2;ratioP2
7173;SDS011;3628;48.654;8.932;2023-03-30T00:01:11;6.00;;;1.50;;
7173;SDS011;3628;48.654;8.932;2023-03-30T00:03:38;7.10;;;1.67;;
7173;SDS011;3628;48.654;8.932;2023-03-30T00:06:07;8.70;;;1.37;;
7173;SDS011;3628;48.654;8.932;2023-03-30T00:08:34;6.57;;;1.40;;
7173;SDS011;3628;48.654;8.932;2023-03-30T00:11:05;3.80;;;1.60;;
7173;SDS011;3628;48.654;8.932;2023-03-30T00:13:34;3.10;;;1.70;;
7173;SDS011;3628;48.654;8.932;2023-03-30T00:16:01;6.37;;;1.57;;
7173;SDS011;3628;48.654;8.932;2023-03-30T00:18:28;7.70;;;1.53;;
7173;SDS011;3628;48.654;8.932;2023-03-30T00:20:53;5.70;;;1.80;;
7173;SDS011;3628;48.654;8.932;2023-03-30T00:23:19;7.80;;;1.80;;
7173;SDS011;3628;48.654;8.932;2023-03-30T00:25:46;6.90;;;1.50;;
7173;SDS011;3628;48.654;8.932;2023-03-30T00:28:12;8.37;;;1.80;;
7173;SDS011;3628;48.654;8.932;2023-03-30T00:30:37;7.40;;;1.50;;
7173;SDS011;3628;48.654;8.932;2023-03-30T00:33:03;10.73;;;2.13;;
7173;SDS011;3628;48.654;8.932;2023-03-30T00:35:29;6.97;;;1.70;;
7173;SDS011;3628;48.654;8.932;2023-03-30T00:37:55;6.37;;;1.70;;
7173;SDS011;3628;48.654;8.932;2023-03-30T00:40:22;5.23;;;1.37;;
7173;SDS011;3628;48.654;8.932;2023-03-30T00:42:48;5.90;;;1.50;;
7173;SDS011;3628;48.654;8.932;2023-03-30T00:50:37;7.03;;;2.17;;
7173;SDS011;3628;48.654;8.932;2023-03-30T00:53:14;7.63;;;1.40;;
7173;SDS011;3628;48.654;8.932;2023-03-30T00:55:44;7.50;;;1.67;;
7173;SDS011;3628;48.654;8.932;2023-03-30T00:58:11;6.67;;;1.47;;
7173;SDS011;3628;48.654;8.932;2023-03-30T01:00:39;6.93;;;2.00;;
7173;SDS011;3628;48.654;8.932;2023-03-30T01:03:09;8.20;;;1.80;;
7173;SDS011;3628;48.654;8.932;2023-03-30T01:05:40;9.93;;;1.80;;
7173;SDS011;3628;48.654;8.932;2023-03-30T01:08:09;5.40;;;1.40;;
7173;SDS011;3628;48.654;8.932;2023-03-30T01:10:40;10.17;;;1.70;;
7173;SDS011;3628;48.654;8.932;2023-03-30T01:13:07;4.67;;;1.57;;
7173;SDS011;3628;48.654;8.932;2023-03-30T01:15:33;4.93;;;1.70;;
7173;SDS011;3628;48.654;8.932;2023-03-30T01:18:05;8.43;;;1.83;;
7173;SDS011;3628;48.654;8.932;2023-03-30T01:24:11;8.10;;;1.83;;
7173;SDS011;3628;48.654;8.932;2023-03-30T01:27:04;7.50;;;1.80;;
7173;SDS011;3628;48.654;8.932;2023-03-30T01:32:43;6.83;;;1.60;;
7173;SDS011;3628;48.654;8.932;2023-03-30T01:43:39;5.53;;;1.77;;
7173;SDS011;3628;48.654;8.932;2023-03-30T01:48:51;6.93;;;2.20;;
7173;SDS011;3628;48.654;8.932;2023-03-30T01:51:29;10.70;;;2.03;;
7173;SDS011;3628;48.654;8.932;2023-03-30T01:59:17;11.37;;;1.93;;
7173;SDS011;3628;48.654;8.932;2023-03-30T02:01:50;9.83;;;1.70;;
7173;SDS011;3628;48.654;8.932;2023-03-30T02:04:24;5.70;;;1.80;;
7173;SDS011;3628;48.654;8.932;2023-03-30T02:06:54;8.93;;;1.97;;
7173;SDS011;3628;48.654;8.932;2023-03-30T02:09:26;8.60;;;1.73;;
7173;SDS011;3628;48.654;8.932;2023-03-30T02:11:53;11.07;;;1.97;;
7173;SDS011;3628;48.654;8.932;2023-03-30T02:14:21;9.17;;;1.80;;
7173;SDS011;3628;48.654;8.932;2023-03-30T02:16:53;7.10;;;2.03;;
7173;SDS011;3628;48.654;8.932;2023-03-30T02:19:24;8.63;;;2.10;;
7173;SDS011;3628;48.654;8.932;2023-03-30T02:21:51;9.50;;;1.97;;
7173;SDS011;3628;48.654;8.932;2023-03-30T02:24:17;7.40;;;2.07;;
7173;SDS011;3628;48.654;8.932;2023-03-30T02:26:47;7.20;;;1.70;;
7173;SDS011;3628;48.654;8.932;2023-03-30T02:29:17;5.53;;;1.70;;
7173;SDS011;3628;48.654;8.932;2023-03-30T02:31:45;6.80;;;1.90;;
7173;SDS011;3628;48.654;8.932;2023-03-30T02:37:16;6.70;;;1.57;;
7173;SDS011;3628;48.654;8.932;2023-03-30T03:02:14;11.03;;;2.00;;
7173;SDS011;3628;48.654;8.932;2023-03-30T03:04:44;7.40;;;2.10;;
7173;SDS011;3628;48.654;8.932;2023-03-30T03:07:11;9.93;;;2.10;;
7173;SDS011;3628;48.654;8.932;2023-03-30T03:09:38;6.00;;;2.03;;
7173;SDS011;3628;48.654;8.932;2023-03-30T03:12:03;9.07;;;2.10;;
7173;SDS011;3628;48.654;8.932;2023-03-30T03:14:29;9.43;;;2.00;;
7173;SDS011;3628;48.654;8.932;2023-03-30T03:16:55;9.43;;;2.17;;
7173;SDS011;3628;48.654;8.932;2023-03-30T03:19:21;8.70;;;2.43;;
7173;SDS011;3628;48.654;8.932;2023-03-30T03:21:47;8.67;;;2.40;;
7173;SDS011;3628;48.654;8.932;2023-03-30T03:24:12;8.00;;;1.80;;
7173;SDS011;3628;48.654;8.932;2023-03-30T03:26:41;7.90;;;1.80;;
7173;SDS011;3628;48.654;8.932;2023-03-30T03:29:10;9.33;;;2.10;;
7173;SDS011;3628;48.654;8.932;2023-03-30T03:31:35;8.30;;;2.10;;
7173;SDS011;3628;48.654;8.932;2023-03-30T03:34:01;9.97;;;2.00;;
7173;SDS011;3628;48.654;8.932;2023-03-30T03:36:26;12.03;;;2.27;;
7173;SDS011;3628;48.654;8.932;2023-03-30T03:38:52;8.97;;;2.13;;
7173;SDS011;3628;48.654;8.932;2023-03-30T03:41:18;8.93;;;1.73;;
7173;SDS011;3628;48.654;8.932;2023-03-30T03:43:44;9.33;;;1.70;;
7173;SDS011;3628;48.654;8.932;2023-03-30T03:46:10;6.93;;;1.87;;
7173;SDS011;3628;48.654;8.932;2023-03-30T03:48:35;7.77;;;2.30;;
7173;SDS011;3628;48.654;8.932;2023-03-30T03:51:02;7.77;;;2.07;;
7173;SDS011;3628;48.654;8.932;2023-03-30T03:53:29;5.70;;;1.60;;
7173;SDS011;3628;48.654;8.932;2023-03-30T03:55:55;9.17;;;2.20;;
7173;SDS011;3628;48.654;8.932;2023-03-30T03:58:21;8.90;;;2.03;;
7173;SDS011;3628;48.654;8.932;2023-03-30T04:00:47;13.43;;;2.30;;
7173;SDS011;3628;48.654;8.932;2023-03-30T04:03:13;7.37;;;2.20;;
7173;SDS011;3628;48.654;8.932;2023-03-30T04:05:39;7.90;;;2.07;;
7173;SDS011;3628;48.654;8.932;2023-03-30T04:08:05;6.40;;;2.00;;
7173;SDS011;3628;48.654;8.932;2023-03-30T04:10:35;6.40;;;1.73;;
7173;SDS011;3628;48.654;8.932;2023-03-30T04:13:04;7.67;;;2.37;;
7173;SDS011;3628;48.654;8.932;2023-03-30T04:15:30;7.03;;;1.90;;
7173;SDS011;3628;48.654;8.932;2023-03-30T04:17:56;10.20;;;2.43;;
7173;SDS011;3628;48.654;8.932;2023-03-30T04:20:22;10.87;;;1.77;;
7173;SDS011;3628;48.654;8.932;2023-03-30T04:22:49;8.47;;;2.00;;
7173;SDS011;3628;48.654;8.932;2023-03-30T04:25:17;9.70;;;2.50;;
7173;SDS011;3628;48.654;8.932;2023-03-30T04:27:46;7.83;;;2.77;;
7173;SDS011;3628;48.654;8.932;2023-03-30T04:30:15;13.93;;;3.90;;
7173;SDS011;3628;48.654;8.932;2023-03-30T04:32:41;8.53;;;2.40;;
7173;SDS011;3628;48.654;8.932;2023-03-30T04:35:08;10.00;;;2.27;;
7173;SDS011;3628;48.654;8.932;2023-03-30T04:37:35;6.60;;;2.20;;
7173;SDS011;3628;48.654;8.932;2023-03-30T04:40:02;6.73;;;1.90;;
7173;SDS011;3628;48.654;8.932;2023-03-30T04:42:33;8.40;;;2.30;;
7173;SDS011;3628;48.654;8.932;2023-03-30T04:45:05;6.47;;;2.30;;
7173;SDS011;3628;48.654;8.932;2023-03-30T04:47:31;9.33;;;2.60;;
7173;SDS011;3628;48.654;8.932;2023-03-30T04:49:58;8.63;;;2.23;;
7173;SDS011;3628;48.654;8.932;2023-03-30T04:52:25;8.60;;;1.97;;
7173;SDS011;3628;48.654;8.932;2023-03-30T04:54:50;10.43;;;2.37;;
7173;SDS011;3628;48.654;8.932;2023-03-30T04:57:16;8.67;;;2.33;;
7173;SDS011;3628;48.654;8.932;2023-03-30T04:59:42;13.37;;;2.63;;
7173;SDS011;3628;48.654;8.932;2023-03-30T05:02:08;9.83;;;2.53;;
7173;SDS011;3628;48.654;8.932;2023-03-30T05:04:35;8.90;;;2.50;;
7173;SDS011;3628;48.654;8.932;2023-03-30T05:07:01;13.53;;;2.27;;
7173;SDS011;3628;48.654;8.932;2023-03-30T05:09:27;9.70;;;2.87;;
7173;SDS011;3628;48.654;8.932;2023-03-30T05:11:53;11.43;;;3.00;;
7173;SDS011;3628;48.654;8.932;2023-03-30T05:14:19;9.67;;;2.63;;
7173;SDS011;3628;48.654;8.932;2023-03-30T05:16:44;10.10;;;3.53;;
7173;SDS011;3628;48.654;8.932;2023-03-30T05:19:10;6.63;;;2.53;;
7173;SDS011;3628;48.654;8.932;2023-03-30T05:21:36;9.63;;;2.30;;
7173;SDS011;3628;48.654;8.932;2023-03-30T05:24:01;10.10;;;2.27;;
7173;SDS011;3628;48.654;8.932;2023-03-30T05:26:27;9.37;;;2.37;;
7173;SDS011;3628;48.654;8.932;2023-03-30T05:28:53;7.13;;;2.30;;
7173;SDS011;3628;48.654;8.932;2023-03-30T05:31:19;10.73;;;2.50;;
7173;SDS011;3628;48.654;8.932;2023-03-30T05:33:45;8.30;;;2.40;;
7173;SDS011;3628;48.654;8.932;2023-03-30T05:36:11;13.60;;;2.50;;
7173;SDS011;3628;48.654;8.932;2023-03-30T05:38:37;9.60;;;2.70;;
7173;SDS011;3628;48.654;8.932;2023-03-30T05:41:02;7.43;;;2.17;;
7173;SDS011;3628;48.654;8.932;2023-03-30T05:43:31;12.90;;;2.27;;
7173;SDS011;3628;48.654;8.932;2023-03-30T05:45:57;10.03;;;2.43;;
7173;SDS011;3628;48.654;8.932;2023-03-30T05:48:23;9.57;;;2.20;;
7173;SDS011;3628;48.654;8.932;2023-03-30T05:50:49;9.90;;;2.27;;
7173;SDS011;3628;48.654;8.932;2023-03-30T05:53:14;10.90;;;2.10;;
7173;SDS011;3628;48.654;8.932;2023-03-30T05:55:44;8.40;;;2.13;;
7173;SDS011;3628;48.654;8.932;2023-03-30T05:58:13;9.33;;;2.30;;
7173;SDS011;3628;48.654;8.932;2023-03-30T06:00:39;9.97;;;2.63;;
7173;SDS011;3628;48.654;8.932;2023-03-30T06:03:08;13.23;;;2.73;;
7173;SDS011;3628;48.654;8.932;2023-03-30T06:05:35;6.80;;;2.70;;
7173;SDS011;3628;48.654;8.932;2023-03-30T06:08:03;9.97;;;2.17;;
7173;SDS011;3628;48.654;8.932;2023-03-30T06:10:29;7.80;;;2.40;;
7173;SDS011;3628;48.654;8.932;2023-03-30T06:12:55;9.13;;;2.50;;
7173;SDS011;3628;48.654;8.932;2023-03-30T06:15:21;8.40;;;2.47;;
7173;SDS011;3628;48.654;8.932;2023-03-30T06:17:47;5.63;;;2.20;;
7173;SDS011;3628;48.654;8.932;2023-03-30T06:20:12;9.27;;;2.90;;
7173;SDS011;3628;48.654;8.932;2023-03-30T06:22:38;6.87;;;2.60;;
7173;SDS011;3628;48.654;8.932;2023-03-30T06:25:05;9.30;;;2.40;;
7173;SDS011;3628;48.654;8.932;2023-03-30T06:27:32;6.23;;;2.10;;
7173;SDS011;3628;48.654;8.932;2023-03-30T06:29:58;8.23;;;2.53;;
7173;SDS011;3628;48.654;8.932;2023-03-30T06:32:24;6.33;;;2.10;;
7173;SDS011;3628;48.654;8.932;2023-03-30T06:34:50;9.47;;;2.13;;
7173;SDS011;3628;48.654;8.932;2023-03-30T06:37:17;12.50;;;2.23;;
7173;SDS011;3628;48.654;8.932;2023-03-30T06:39:43;5.50;;;2.30;;
7173;SDS011;3628;48.654;8.932;2023-03-30T06:42:09;8.43;;;2.13;;
7173;SDS011;3628;48.654;8.932;2023-03-30T06:44:35;8.53;;;2.57;;
7173;SDS011;3628;48.654;8.932;2023-03-30T06:47:01;15.13;;;2.53;;
7173;SDS011;3628;48.654;8.932;2023-03-30T06:49:29;9.03;;;2.13;;
7173;SDS011;3628;48.654;8.932;2023-03-30T06:51:55;7.80;;;2.43;;
7173;SDS011;3628;48.654;8.932;2023-03-30T06:54:20;11.60;;;2.70;;
7173;SDS011;3628;48.654;8.932;2023-03-30T06:56:46;11.57;;;2.67;;
7173;SDS011;3628;48.654;8.932;2023-03-30T06:59:12;7.30;;;2.20;;
7173;SDS011;3628;48.654;8.932;2023-03-30T07:01:38;11.10;;;2.60;;
7173;SDS011;3628;48.654;8.932;2023-03-30T07:04:03;9.80;;;2.00;;
7173;SDS011;3628;48.654;8.932;2023-03-30T07:06:29;8.00;;;2.10;;
7173;SDS011;3628;48.654;8.932;2023-03-30T07:08:55;4.90;;;2.03;;
7173;SDS011;3628;48.654;8.932;2023-03-30T07:11:21;10.30;;;2.23;;
7173;SDS011;3628;48.654;8.932;2023-03-30T07:13:47;7.70;;;2.20;;
7173;SDS011;3628;48.654;8.932;2023-03-30T07:16:12;7.50;;;2.13;;
7173;SDS011;3628;48.654;8.932;2023-03-30T07:18:38;10.93;;;2.20;;
7173;SDS011;3628;48.654;8.932;2023-03-30T07:21:03;8.20;;;2.13;;
7173;SDS011;3628;48.654;8.932;2023-03-30T07:23:29;6.47;;;1.97;;
7173;SDS011;3628;48.654;8.932;2023-03-30T07:25:55;9.53;;;1.87;;
7173;SDS011;3628;48.654;8.932;2023-03-30T07:28:21;3.77;;;1.77;;
7173;SDS011;3628;48.654;8.932;2023-03-30T07:30:46;8.37;;;1.73;;
7173;SDS011;3628;48.654;8.932;2023-03-30T07:33:12;7.13;;;1.70;;
7173;SDS011;3628;48.654;8.932;2023-03-30T07:35:45;3.73;;;1.47;;
7173;SDS011;3628;48.654;8.932;2023-03-30T07:38:12;6.47;;;1.73;;
7173;SDS011;3628;48.654;8.932;2023-03-30T07:40:38;5.73;;;1.80;;
7173;SDS011;3628;48.654;8.932;2023-03-30T07:43:04;6.20;;;1.80;;
7173;SDS011;3628;48.654;8.932;2023-03-30T07:45:32;6.17;;;1.77;;
7173;SDS011;3628;48.654;8.932;2023-03-30T07:47:58;6.17;;;2.03;;
7173;SDS011;3628;48.654;8.932;2023-03-30T07:50:23;8.27;;;1.90;;
7173;SDS011;3628;48.654;8.932;2023-03-30T07:52:50;7.03;;;1.57;;
7173;SDS011;3628;48.654;8.932;2023-03-30T07:55:16;5.43;;;1.97;;
7173;SDS011;3628;48.654;8.932;2023-03-30T07:57:42;7.03;;;2.10;;
7173;SDS011;3628;48.654;8.932;2023-03-30T08:00:08;6.50;;;1.83;;
7173;SDS011;3628;48.654;8.932;2023-03-30T08:02:35;6.27;;;2.00;;
7173;SDS011;3628;48.654;8.932;2023-03-30T08:05:01;6.30;;;1.57;;
7173;SDS011;3628;48.654;8.932;2023-03-30T08:07:27;4.97;;;1.60;;
7173;SDS011;3628;48.654;8.932;2023-03-30T08:09:54;4.80;;;2.00;;
7173;SDS011;3628;48.654;8.932;2023-03-30T08:12:20;9.30;;;3.07;;
7173;SDS011;3628;48.654;8.932;2023-03-30T08:14:45;6.83;;;1.90;;
7173;SDS011;3628;48.654;8.932;2023-03-30T08:17:11;8.83;;;1.90;;
7173;SDS011;3628;48.654;8.932;2023-03-30T08:19:37;4.50;;;1.13;;
7173;SDS011;3628;48.654;8.932;2023-03-30T08:22:03;6.80;;;1.83;;
7173;SDS011;3628;48.654;8.932;2023-03-30T08:24:28;2.70;;;1.10;;
7173;SDS011;3628;48.654;8.932;2023-03-30T08:26:54;3.17;;;1.23;;
7173;SDS011;3628;48.654;8.932;2023-03-30T08:29:20;3.27;;;1.33;;
7173;SDS011;3628;48.654;8.932;2023-03-30T08:31:46;3.40;;;1.40;;
7173;SDS011;3628;48.654;8.932;2023-03-30T08:34:12;2.80;;;1.20;;
7173;SDS011;3628;48.654;8.932;2023-03-30T08:36:38;6.97;;;1.90;;
7173;SDS011;3628;48.654;8.932;2023-03-30T08:39:04;5.77;;;1.27;;
7173;SDS011;3628;48.654;8.932;2023-03-30T08:46:52;3.80;;;1.10;;
7173;SDS011;3628;48.654;8.932;2023-03-30T08:49:18;3.37;;;1.70;;
7173;SDS011;3628;48.654;8.932;2023-03-30T08:51:45;2.03;;;1.10;;
7173;SDS011;3628;48.654;8.932;2023-03-30T08:54:15;3.27;;;1.37;;
7173;SDS011;3628;48.654;8.932;2023-03-30T09:01:57;4.77;;;1.10;;
7173;SDS011;3628;48.654;8.932;2023-03-30T09:09:36;2.37;;;1.00;;
7173;SDS011;3628;48.654;8.932;2023-03-30T09:12:18;2.77;;;0.90;;
7173;SDS011;3628;48.654;8.932;2023-03-30T09:15:05;4.60;;;1.10;;
7173;SDS011;3628;48.654;8.932;2023-03-30T09:17:41;3.07;;;1.10;;
7173;SDS011;3628;48.654;8.932;2023-03-30T09:20:12;2.60;;;0.87;;
7173;SDS011;3628;48.654;8.932;2023-03-30T09:22:44;2.23;;;1.20;;
7173;SDS011;3628;48.654;8.932;2023-03-30T09:25:12;6.07;;;1.40;;
7173;SDS011;3628;48.654;8.932;2023-03-30T09:30:16;7.03;;;1.30;;
7173;SDS011;3628;48.654;8.932;2023-03-30T09:32:47;2.73;;;0.80;;
7173;SDS011;3628;48.654;8.932;2023-03-30T09:35:23;1.67;;;1.00;;
7173;SDS011;3628;48.654;8.932;2023-03-30T09:37:52;2.50;;;1.30;;
7173;SDS011;3628;48.654;8.932;2023-03-30T09:46:05;2.30;;;1.17;;
7173;SDS011;3628;48.654;8.932;2023-03-30T09:48:38;3.03;;;1.20;;
7173;SDS011;3628;48.654;8.932;2023-03-30T09:51:27;2.57;;;1.40;;
7173;SDS011;3628;48.654;8.932;2023-03-30T09:53:59;1.57;;;1.00;;
7173;SDS011;3628;48.654;8.932;2023-03-30T09:56:37;2.40;;;1.27;;
7173;SDS011;3628;48.654;8.932;2023-03-30T09:59:20;3.03;;;1.30;;
7173;SDS011;3628;48.654;8.932;2023-03-30T10:07:26;2.80;;;1.30;;
7173;SDS011;3628;48.654;8.932;2023-03-30T10:09:57;2.50;;;1.40;;
7173;SDS011;3628;48.654;8.932;2023-03-30T10:12:25;3.00;;;1.40;;
7173;SDS011;3628;48.654;8.932;2023-03-30T10:14:53;2.57;;;1.40;;
7173;SDS011;3628;48.654;8.932;2023-03-30T10:17:21;4.40;;;1.20;;
7173;SDS011;3628;48.654;8.932;2023-03-30T10:19:53;3.93;;;1.23;;
7173;SDS011;3628;48.654;8.932;2023-03-30T10:22:37;4.37;;;1.40;;
7173;SDS011;3628;48.654;8.932;2023-03-30T10:25:21;2.83;;;1.40;;
7173;SDS011;3628;48.654;8.932;2023-03-30T10:27:51;2.17;;;1.40;;
7173;SDS011;3628;48.654;8.932;2023-03-30T10:30:21;2.23;;;1.57;;
7173;SDS011;3628;48.654;8.932;2023-03-30T10:32:48;2.43;;;1.33;;
7173;SDS011;3628;48.654;8.932;2023-03-30T10:35:17;5.00;;;1.97;;
7173;SDS011;3628;48.654;8.932;2023-03-30T10:37:45;4.37;;;1.97;;
7173;SDS011;3628;48.654;8.932;2023-03-30T10:40:17;3.50;;;1.60;;
7173;SDS011;3628;48.654;8.932;2023-03-30T10:42:45;4.97;;;1.70;;
7173;SDS011;3628;48.654;8.932;2023-03-30T10:45:19;3.07;;;1.53;;
7173;SDS011;3628;48.654;8.932;2023-03-30T10:47:54;6.87;;;1.77;;
7173;SDS011;3628;48.654;8.932;2023-03-30T10:50:24;5.57;;;1.93;;
7173;SDS011;3628;48.654;8.932;2023-03-30T11:03:54;5.67;;;1.97;;
7173;SDS011;3628;48.654;8.932;2023-03-30T11:06:26;3.93;;;1.70;;
7173;SDS011;3628;48.654;8.932;2023-03-30T11:08:59;6.63;;;1.97;;
7173;SDS011;3628;48.654;8.932;2023-03-30T11:14:20;4.43;;;2.10;;
7173;SDS011;3628;48.654;8.932;2023-03-30T11:16:54;7.93;;;2.23;;
7173;SDS011;3628;48.654;8.932;2023-03-30T11:19:28;9.63;;;2.70;;
7173;SDS011;3628;48.654;8.932;2023-03-30T11:22:04;9.63;;;1.93;;
7173;SDS011;3628;48.654;8.932;2023-03-30T11:24:52;3.63;;;1.63;;
7173;SDS011;3628;48.654;8.932;2023-03-30T11:27:25;6.17;;;2.00;;
7173;SDS011;3628;48.654;8.932;2023-03-30T11:32:48;9.00;;;2.10;;
7173;SDS011;3628;48.654;8.932;2023-03-30T11:41:10;7.90;;;1.90;;
7173;SDS011;3628;48.654;8.932;2023-03-30T11:43:41;5.57;;;2.00;;
7173;SDS011;3628;48.654;8.932;2023-03-30T11:46:26;4.23;;;1.90;;
7173;SDS011;3628;48.654;8.932;2023-03-30T12:02:47;4.87;;;2.17;;
7173;SDS011;3628;48.654;8.932;2023-03-30T12:08:16;6.23;;;2.37;;
7173;SDS011;3628;48.654;8.932;2023-03-30T12:10:54;4.47;;;2.10;;
7173;SDS011;3628;48.654;8.932;2023-03-30T12:13:37;5.30;;;2.13;;
7173;SDS011;3628;48.654;8.932;2023-03-30T12:16:05;5.70;;;2.23;;
7173;SDS011;3628;48.654;8.932;2023-03-30T12:18:45;3.73;;;2.07;;
7173;SDS011;3628;48.654;8.932;2023-03-30T12:21:52;6.53;;;2.30;;
7173;SDS011;3628;48.654;8.932;2023-03-30T12:24:32;4.63;;;2.00;;
7173;SDS011;3628;48.654;8.932;2023-03-30T12:27:05;6.47;;;2.10;;
7173;SDS011;3628;48.654;8.932;2023-03-30T12:32:26;4.27;;;1.60;;
7173;SDS011;3628;48.654;8.932;2023-03-30T12:34:52;4.23;;;2.27;;
7173;SDS011;3628;48.654;8.932;2023-03-30T12:56:05;4.17;;;1.73;;
7173;SDS011;3628;48.654;8.932;2023-03-30T13:04:17;2.30;;;1.50;;
7173;SDS011;3628;48.654;8.932;2023-03-30T13:07:01;4.40;;;1.60;;
7173;SDS011;3628;48.654;8.932;2023-03-30T13:12:28;8.93;;;2.20;;
7173;SDS011;3628;48.654;8.932;2023-03-30T13:17:46;5.63;;;1.63;;
7173;SDS011;3628;48.654;8.932;2023-03-30T13:20:19;5.80;;;1.80;;
7173;SDS011;3628;48.654;8.932;2023-03-30T13:22:59;3.83;;;1.57;;
7173;SDS011;3628;48.654;8.932;2023-03-30T13:25:35;3.20;;;1.30;;
7173;SDS011;3628;48.654;8.932;2023-03-30T13:33:57;7.20;;;1.63;;
7173;SDS011;3628;48.654;8.932;2023-03-30T13:36:39;2.87;;;1.43;;
7173;SDS011;3628;48.654;8.932;2023-03-30T13:39:34;4.73;;;1.40;;
7173;SDS011;3628;48.654;8.932;2023-03-30T13:42:13;5.90;;;1.30;;
7173;SDS011;3628;48.654;8.932;2023-03-30T13:44:48;3.17;;;1.30;;
7173;SDS011;3628;48.654;8.932;2023-03-30T13:47:53;4.33;;;1.40;;
7173;SDS011;3628;48.654;8.932;2023-03-30T13:50:46;4.47;;;1.43;;
7173;SDS011;3628;48.654;8.932;2023-03-30T13:53:18;4.07;;;1.20;;
7173;SDS011;3628;48.654;8.932;2023-03-30T13:55:45;1.40;;;1.10;;
7173;SDS011;3628;48.654;8.932;2023-03-30T14:00:48;2.23;;;1.40;;
7173;SDS011;3628;48.654;8.932;2023-03-30T14:03:24;4.10;;;1.57;;
7173;SDS011;3628;48.654;8.932;2023-03-30T14:05:52;3.47;;;1.27;;
7173;SDS011;3628;48.654;8.932;2023-03-30T14:08:18;2.80;;;0.90;;
7173;SDS011;3628;48.654;8.932;2023-03-30T14:10:47;3.60;;;1.20;;
7173;SDS011;3628;48.654;8.932;2023-03-30T14:13:15;4.33;;;1.13;;
7173;SDS011;3628;48.654;8.932;2023-03-30T14:15:41;1.67;;;0.83;;
7173;SDS011;3628;48.654;8.932;2023-03-30T14:18:08;1.87;;;1.17;;
7173;SDS011;3628;48.654;8.932;2023-03-30T14:23:19;3.27;;;1.10;;
7173;SDS011;3628;48.654;8.932;2023-03-30T14:25:59;3.77;;;1.13;;
7173;SDS011;3628;48.654;8.932;2023-03-30T14:28:27;3.43;;;1.07;;
7173;SDS011;3628;48.654;8.932;2023-03-30T14:30:59;5.33;;;1.10;;
7173;SDS011;3628;48.654;8.932;2023-03-30T14:33:30;3.27;;;0.97;;
7173;SDS011;3628;48.654;8.932;2023-03-30T14:35:59;3.53;;;1.43;;
7173;SDS011;3628;48.654;8.932;2023-03-30T14:38:30;4.40;;;1.30;;
7173;SDS011;3628;48.654;8.932;2023-03-30T14:41:07;1.70;;;1.30;;
7173;SDS011;3628;48.654;8.932;2023-03-30T14:43:57;2.97;;;0.97;;
7173;SDS011;3628;48.654;8.932;2023-03-30T14:46:44;4.53;;;1.27;;
7173;SDS011;3628;48.654;8.932;2023-03-30T14:49:16;4.10;;;1.23;;
7173;SDS011;3628;48.654;8.932;2023-03-30T14:52:01;2.30;;;0.80;;
7173;SDS011;3628;48.654;8.932;2023-03-30T14:54:31;4.13;;;1.40;;
7173;SDS011;3628;48.654;8.932;2023-03-30T14:56:58;2.57;;;0.90;;
7173;SDS011;3628;48.654;8.932;2023-03-30T14:59:26;2.60;;;0.90;;
7173;SDS011;3628;48.654;8.932;2023-03-30T15:01:53;2.43;;;1.30;;
7173;SDS011;3628;48.654;8.932;2023-03-30T15:04:20;2.87;;;0.90;;
7173;SDS011;3628;48.654;8.932;2023-03-30T15:06:49;1.33;;;0.83;;
7173;SDS011;3628;48.654;8.932;2023-03-30T15:09:17;4.50;;;1.00;;
7173;SDS011;3628;48.654;8.932;2023-03-30T15:11:46;2.77;;;1.00;;
7173;SDS011;3628;48.654;8.932;2023-03-30T15:14:16;2.53;;;0.80;;
7173;SDS011;3628;48.654;8.932;2023-03-30T15:16:46;3.50;;;1.13;;
7173;SDS011;3628;48.654;8.932;2023-03-30T15:19:24;2.80;;;1.00;;
7173;SDS011;3628;48.654;8.932;2023-03-30T15:21:55;2.40;;;0.90;;
7173;SDS011;3628;48.654;8.932;2023-03-30T15:24:27;2.37;;;1.00;;
7173;SDS011;3628;48.654;8.932;2023-03-30T15:26:57;2.10;;;0.87;;
7173;SDS011;3628;48.654;8.932;2023-03-30T15:29:24;2.67;;;0.90;;
7173;SDS011;3628;48.654;8.932;2023-03-30T15:32:04;2.43;;;0.70;;
7173;SDS011;3628;48.654;8.932;2023-03-30T15:34:35;1.37;;;0.70;;
7173;SDS011;3628;48.654;8.932;2023-03-30T15:37:01;2.70;;;0.90;;
7173;SDS011;3628;48.654;8.932;2023-03-30T15:39:28;1.97;;;0.80;;
7173;SDS011;3628;48.654;8.932;2023-03-30T15:42:04;2.00;;;0.80;;
7173;SDS011;3628;48.654;8.932;2023-03-30T15:44:32;0.90;;;0.60;;
7173;SDS011;3628;48.654;8.932;2023-03-30T15:46:59;3.03;;;0.80;;
7173;SDS011;3628;48.654;8.932;2023-03-30T15:49:35;1.87;;;0.60;;
7173;SDS011;3628;48.654;8.932;2023-03-30T15:52:30;1.60;;;0.67;;
7173;SDS011;3628;48.654;8.932;2023-03-30T15:55:01;1.97;;;0.70;;
7173;SDS011;3628;48.654;8.932;2023-03-30T15:57:31;2.37;;;0.80;;
7173;SDS011;3628;48.654;8.932;2023-03-30T16:00:00;1.50;;;0.40;;
7173;SDS011;3628;48.654;8.932;2023-03-30T16:02:37;0.70;;;0.43;;
7173;SDS011;3628;48.654;8.932;2023-03-30T16:05:05;1.53;;;0.30;;
7173;SDS011;3628;48.654;8.932;2023-03-30T16:07:39;1.70;;;0.63;;
7173;SDS011;3628;48.654;8.932;2023-03-30T16:10:06;2.33;;;0.60;;
7173;SDS011;3628;48.654;8.932;2023-03-30T16:12:37;1.10;;;0.60;;
7173;SDS011;3628;48.654;8.932;2023-03-30T16:15:07;1.83;;;0.77;;
7173;SDS011;3628;48.654;8.932;2023-03-30T16:17:40;1.40;;;0.50;;
7173;SDS011;3628;48.654;8.932;2023-03-30T16:22:41;1.00;;;0.50;;
7173;SDS011;3628;48.654;8.932;2023-03-30T16:25:07;2.73;;;0.67;;
7173;SDS011;3628;48.654;8.932;2023-03-30T16:27:33;2.43;;;0.90;;
7173;SDS011;3628;48.654;8.932;2023-03-30T16:29:58;2.83;;;0.87;;
7173;SDS011;3628;48.654;8.932;2023-03-30T16:32:24;2.00;;;0.43;;
7173;SDS011;3628;48.654;8.932;2023-03-30T16:34:49;1.53;;;0.47;;
7173;SDS011;3628;48.654;8.932;2023-03-30T16:37:17;1.90;;;0.60;;
7173;SDS011;3628;48.654;8.932;2023-03-30T16:39:43;1.27;;;0.50;;
7173;SDS011;3628;48.654;8.932;2023-03-30T16:42:10;1.50;;;0.67;;
7173;SDS011;3628;48.654;8.932;2023-03-30T16:44:36;4.13;;;1.10;;
7173;SDS011;3628;48.654;8.932;2023-03-30T16:47:01;1.80;;;1.17;;
7173;SDS011;3628;48.654;8.932;2023-03-30T16:49:27;1.17;;;0.60;;
7173;SDS011;3628;48.654;8.932;2023-03-30T16:51:52;1.30;;;0.70;;
7173;SDS011;3628;48.654;8.932;2023-03-30T16:54:18;1.67;;;0.77;;
7173;SDS011;3628;48.654;8.932;2023-03-30T16:56:44;1.83;;;0.80;;
7173;SDS011;3628;48.654;8.932;2023-03-30T16:59:19;1.33;;;0.60;;
7173;SDS011;3628;48.654;8.932;2023-03-30T17:01:46;2.50;;;0.70;;
7173;SDS011;3628;48.654;8.932;2023-03-30T17:04:12;1.20;;;0.50;;
7173;SDS011;3628;48.654;8.932;2023-03-30T17:06:38;1.10;;;0.60;;
7173;SDS011;3628;48.654;8.932;2023-03-30T17:09:04;1.70;;;0.53;;
7173;SDS011;3628;48.654;8.932;2023-03-30T17:11:32;2.80;;;0.83;;
7173;SDS011;3628;48.654;8.932;2023-03-30T17:13:57;2.30;;;0.70;;
7173;SDS011;3628;48.654;8.932;2023-03-30T17:16:23;2.27;;;0.90;;
7173;SDS011;3628;48.654;8.932;2023-03-30T17:18:51;2.83;;;1.00;;
7173;SDS011;3628;48.654;8.932;2023-03-30T17:21:16;2.97;;;0.97;;
7173;SDS011;3628;48.654;8.932;2023-03-30T17:23:42;1.13;;;0.70;;
7173;SDS011;3628;48.654;8.932;2023-03-30T17:26:09;1.30;;;0.57;;
7173;SDS011;3628;48.654;8.932;2023-03-30T17:28:36;1.50;;;0.70;;
7173;SDS011;3628;48.654;8.932;2023-03-30T17:31:03;1.80;;;0.67;;
7173;SDS011;3628;48.654;8.932;2023-03-30T17:33:30;2.27;;;0.80;;
7173;SDS011;3628;48.654;8.932;2023-03-30T17:36:06;2.20;;;0.80;;
7173;SDS011;3628;48.654;8.932;2023-03-30T17:38:41;2.10;;;0.77;;
7173;SDS011;3628;48.654;8.932;2023-03-30T17:41:08;6.70;;;1.20;;
7173;SDS011;3628;48.654;8.932;2023-03-30T17:43:36;3.07;;;0.77;;
7173;SDS011;3628;48.654;8.932;2023-03-30T17:46:02;3.07;;;1.20;;
7173;SDS011;3628;48.654;8.932;2023-03-30T17:48:28;2.80;;;0.90;;
7173;SDS011;3628;48.654;8.932;2023-03-30T17:50:54;1.33;;;0.60;;
7173;SDS011;3628;48.654;8.932;2023-03-30T17:53:20;1.53;;;0.87;;
7173;SDS011;3628;48.654;8.932;2023-03-30T17:55:46;2.80;;;1.10;;
7173;SDS011;3628;48.654;8.932;2023-03-30T17:58:16;3.70;;;1.10;;
7173;SDS011;3628;48.654;8.932;2023-03-30T18:00:44;3.33;;;1.00;;
7173;SDS011;3628;48.654;8.932;2023-03-30T18:03:11;1.33;;;0.70;;
7173;SDS011;3628;48.654;8.932;2023-03-30T18:05:38;1.60;;;0.97;;
7173;SDS011;3628;48.654;8.932;2023-03-30T18:08:04;3.80;;;1.00;;
7173;SDS011;3628;48.654;8.932;2023-03-30T18:10:34;5.00;;;1.63;;
7173;SDS011;3628;48.654;8.932;2023-03-30T18:13:01;3.23;;;1.50;;
7173;SDS011;3628;48.654;8.932;2023-03-30T18:15:27;3.97;;;1.80;;
7173;SDS011;3628;48.654;8.932;2023-03-30T18:17:54;2.13;;;1.37;;